Terminal Aerodrome Forecast
Issued by NWS Denver/Boulder, CO

Home | Current Version | Previous Version | Text Only | Print | Product List | Glossary On
Versions: 1 2 3 4 5 6 7 8 9 10 11 12 13 14 15 16 17 18 19 20 21 22 23 24 25 26 27 28 29 30 31 32 33 34 35 36 37 38 39 40 41 42
770
FTUS45 KBOU 220453 AAE
TAFDEN
TAF AMD
KDEN 220453Z 2205/2306 13014KT P6SM VCSH SCT015 BKN028 OVC035
      TEMPO 2205/2207 BKN015
     FM220800 12014KT 5SM -SHRA BR SCT012 OVC025
      TEMPO 2208/2211 3SM -RA BR BKN012
     FM221100 12012KT 3SM -RA BKN009 OVC020
     FM221800 VRB05KT P6SM VCSH SCT020 BKN040 BKN080
     FM222200 08008KT P6SM SCT015 BKN030 OVC050
      TEMPO 2222/2302 4SM -SHRA BKN015
     FM230200 03008KT P6SM SCT015 OVC030 PROB30 2302/2306 4SM -SHRA
      SCT008 BKN015=

USA.gov is the U.S. government's official web portal to all federal, state and local government web resources and services.